Time;durP1;ratioP1;P1;durP2;ratioP2;P2;SDS_P1;SDS_P2;PMS_P1;PMS_P2;Temp;Humidity;BMP_temperature;BMP_pressure;BME280_temperature;BME280_humidity;BME280_pressure;Samples;Min_cycle;Max_cycle;Signal;HPM_P1;HPM_P2
2021/08/18 00:01:37;;;;;;;46.28;25.38;;;14.80;94.20;;;;;;5074403;28;20433;-50
2021/08/18 00:04:03;;;;;;;50.33;28.13;;;14.80;94.40;;;;;;5074613;28;20522;-47
2021/08/18 00:06:29;;;;;;;41.55;25.73;;;14.80;94.50;;;;;;5074611;28;20105;-50
2021/08/18 00:08:55;;;;;;;51.10;27.15;;;14.80;94.30;;;;;;5074243;28;20147;-47
2021/08/18 00:11:21;;;;;;;44.00;26.67;;;14.80;94.40;;;;;;5074191;28;20025;-47
2021/08/18 00:13:47;;;;;;;45.58;24.30;;;14.80;94.30;;;;;;5074326;28;20112;-47
2021/08/18 00:16:13;;;;;;;44.92;25.25;;;14.80;94.30;;;;;;5074131;28;20025;-46
2021/08/18 00:18:39;;;;;;;44.72;25.35;;;14.90;94.40;;;;;;5074083;28;20017;-47
2021/08/18 00:21:05;;;;;;;47.85;27.58;;;14.80;94.30;;;;;;5073914;28;20024;-46
2021/08/18 00:23:30;;;;;;;48.67;27.63;;;14.80;94.40;;;;;;5073737;28;20044;-50
2021/08/18 00:25:56;;;;;;;46.17;24.58;;;14.90;94.40;;;;;;5074186;28;20103;-46
2021/08/18 00:28:22;;;;;;;43.20;24.80;;;14.80;94.30;;;;;;5073815;28;20419;-47
2021/08/18 00:30:47;;;;;;;46.70;23.90;;;14.80;94.40;;;;;;5073834;28;20016;-47
2021/08/18 00:33:13;;;;;;;46.58;23.75;;;14.90;94.40;;;;;;5073754;28;20028;-48
2021/08/18 00:35:39;;;;;;;42.20;23.67;;;14.90;94.30;;;;;;5073733;28;20412;-48
2021/08/18 00:38:04;;;;;;;42.88;23.55;;;14.90;94.20;;;;;;5073909;28;20024;-47
2021/08/18 00:40:30;;;;;;;43.92;24.55;;;15.00;94.20;;;;;;5073667;28;20020;-48
2021/08/18 00:42:56;;;;;;;45.60;24.92;;;15.00;94.10;;;;;;5073529;28;20032;-49
2021/08/18 00:45:22;;;;;;;40.90;23.35;;;15.00;94.10;;;;;;5073477;28;20020;-47
2021/08/18 00:47:50;;;;;;;44.22;23.92;;;14.90;94.10;;;;;;5073691;28;20036;-49
2021/08/18 00:50:19;;;;;;;38.15;23.83;;;15.00;94.30;;;;;;5073408;28;20020;-46
2021/08/18 00:52:45;;;;;;;37.38;21.40;;;15.00;94.00;;;;;;5073922;28;20025;-49
2021/08/18 00:55:13;;;;;;;32.97;22.02;;;15.00;93.80;;;;;;5072005;28;20020;-46
2021/08/18 00:57:40;;;;;;;34.45;20.45;;;15.10;93.90;;;;;;5073264;28;20048;-46
2021/08/18 01:00:11;;;;;;;31.48;20.65;;;15.10;93.50;;;;;;5072491;28;20365;-46
2021/08/18 01:02:38;;;;;;;33.05;19.45;;;15.10;93.70;;;;;;5072927;28;20063;-46
2021/08/18 01:05:21;;;;;;;31.50;18.67;;;15.00;93.70;;;;;;5072829;28;20108;-47
2021/08/18 01:07:49;;;;;;;29.20;19.50;;;15.00;93.90;;;;;;5073085;28;20353;-45
2021/08/18 01:10:19;;;;;;;31.58;18.05;;;15.00;93.90;;;;;;5072864;28;20488;-47
2021/08/18 01:12:45;;;;;;;25.77;16.13;;;15.00;93.90;;;;;;5073112;28;20020;-46
2021/08/18 01:15:14;;;;;;;30.35;17.30;;;15.00;93.80;;;;;;5073018;28;20060;-45
2021/08/18 01:17:44;;;;;;;25.58;15.63;;;15.00;93.90;;;;;;5072721;28;20029;-50
2021/08/18 01:20:14;;;;;;;27.85;14.82;;;14.90;94.00;;;;;;5072946;28;20028;-46
2021/08/18 01:22:40;;;;;;;28.35;16.88;;;15.00;94.00;;;;;;5072568;28;20420;-46
2021/08/18 01:25:07;;;;;;;27.23;15.25;;;15.10;93.60;;;;;;5072694;28;20025;-45
2021/08/18 01:27:33;;;;;;;25.85;15.93;;;15.10;93.50;;;;;;5072616;28;20040;-48
2021/08/18 01:29:59;;;;;;;30.83;18.17;;;15.10;93.30;;;;;;5073174;28;20127;-45
2021/08/18 01:32:25;;;;;;;29.23;16.85;;;15.10;93.40;;;;;;5072628;28;20024;-45
2021/08/18 01:34:50;;;;;;;29.25;18.73;;;15.20;93.10;;;;;;5072989;28;20047;-49
2021/08/18 01:37:16;;;;;;;29.63;19.50;;;15.20;93.10;;;;;;5073034;28;20036;-47
2021/08/18 01:39:42;;;;;;;43.00;19.23;;;15.20;93.20;;;;;;5072769;28;20027;-49
2021/08/18 01:42:07;;;;;;;36.80;19.42;;;15.10;93.40;;;;;;5072721;28;20100;-46
2021/08/18 01:44:33;;;;;;;36.20;20.27;;;15.10;93.20;;;;;;5072544;28;20086;-50
2021/08/18 01:46:59;;;;;;;42.60;20.33;;;15.10;93.30;;;;;;5072657;28;20052;-48
2021/08/18 01:49:29;;;;;;;33.00;20.75;;;15.20;93.20;;;;;;5072712;28;20044;-48
2021/08/18 01:51:57;;;;;;;33.17;18.95;;;15.20;93.00;;;;;;5072598;28;20025;-46
2021/08/18 01:54:23;;;;;;;36.00;19.75;;;15.20;93.00;;;;;;5072642;28;20024;-46
2021/08/18 01:56:49;;;;;;;31.00;19.08;;;15.20;93.20;;;;;;5071286;28;20389;-46
2021/08/18 01:59:15;;;;;;;34.92;20.83;;;15.20;93.10;;;;;;5072531;28;20033;-46
2021/08/18 02:01:42;;;;;;;33.83;21.05;;;15.20;93.10;;;;;;5072843;28;20020;-45
2021/08/18 02:04:07;;;;;;;38.38;23.15;;;15.10;93.10;;;;;;5072953;28;20380;-47
2021/08/18 02:06:33;;;;;;;29.92;17.88;;;15.20;93.20;;;;;;5072478;28;20024;-45
2021/08/18 02:08:59;;;;;;;24.65;15.80;;;15.20;92.90;;;;;;5071190;28;20040;-47
2021/08/18 02:11:25;;;;;;;25.05;16.55;;;15.10;92.30;;;;;;5072862;28;20028;-47
2021/08/18 02:13:50;;;;;;;23.05;15.38;;;15.10;92.40;;;;;;5076464;28;20040;-47
2021/08/18 02:16:16;;;;;;;26.23;16.52;;;15.00;92.30;;;;;;5076478;28;20388;-51
2021/08/18 02:18:42;;;;;;;21.02;13.73;;;15.00;92.60;;;;;;5076646;28;20050;-46
2021/08/18 02:21:07;;;;;;;20.70;12.77;;;14.90;92.60;;;;;;5076401;28;20036;-47
2021/08/18 02:23:33;;;;;;;17.30;12.07;;;14.90;92.60;;;;;;5075988;28;20146;-52
2021/08/18 02:25:59;;;;;;;12.68;9.95;;;14.90;92.60;;;;;;5076562;28;20051;-50
2021/08/18 02:28:24;;;;;;;16.50;8.95;;;14.80;92.40;;;;;;5077536;28;20360;-50
2021/08/18 02:30:50;;;;;;;15.85;9.35;;;14.80;92.20;;;;;;5076497;28;20033;-47
2021/08/18 02:33:16;;;;;;;12.25;8.98;;;15.00;92.30;;;;;;5076322;28;20056;-48
2021/08/18 02:35:42;;;;;;;10.70;8.30;;;14.90;92.20;;;;;;5074691;28;20028;-47
2021/08/18 02:38:08;;;;;;;13.13;8.68;;;14.90;92.00;;;;;;5076203;28;20078;-47
2021/08/18 02:40:35;;;;;;;12.90;10.30;;;14.90;92.00;;;;;;5075904;28;20380;-51
2021/08/18 02:43:01;;;;;;;18.30;13.57;;;14.80;92.40;;;;;;5074554;28;20507;-50
2021/08/18 02:45:27;;;;;;;24.38;15.50;;;15.00;92.50;;;;;;5075822;28;20107;-48
2021/08/18 02:47:54;;;;;;;23.85;16.00;;;15.00;92.50;;;;;;5076006;28;20464;-48
2021/08/18 02:50:22;;;;;;;24.73;15.20;;;15.10;92.60;;;;;;5076008;28;20036;-52
2021/08/18 02:52:48;;;;;;;25.95;16.45;;;15.10;92.60;;;;;;5075695;28;20029;-48
2021/08/18 02:55:13;;;;;;;32.25;17.15;;;15.10;92.60;;;;;;5075708;28;20025;-50
2021/08/18 02:57:39;;;;;;;34.95;18.30;;;15.10;92.80;;;;;;5075850;28;20020;-48
2021/08/18 03:00:06;;;;;;;28.05;17.08;;;15.10;93.00;;;;;;5075565;28;20495;-48
2021/08/18 03:02:32;;;;;;;32.45;17.95;;;15.10;93.00;;;;;;5075478;28;20031;-51
2021/08/18 03:04:57;;;;;;;38.38;20.00;;;15.20;93.20;;;;;;5075773;28;20107;-52
2021/08/18 03:07:23;;;;;;;36.17;22.13;;;15.20;93.10;;;;;;5075498;28;20029;-50
2021/08/18 03:09:48;;;;;;;40.97;22.40;;;15.10;93.40;;;;;;5075494;28;20082;-49
2021/08/18 03:12:14;;;;;;;41.75;23.33;;;15.10;93.50;;;;;;5075406;28;20020;-48
2021/08/18 03:14:40;;;;;;;45.92;23.67;;;15.10;93.60;;;;;;5075290;28;20036;-48
2021/08/18 03:17:06;;;;;;;38.83;22.25;;;15.10;93.70;;;;;;5075328;28;20416;-48
2021/08/18 03:19:31;;;;;;;35.95;22.00;;;15.10;93.70;;;;;;5075505;28;20465;-47
2021/08/18 03:21:57;;;;;;;42.67;23.50;;;15.00;93.80;;;;;;5075103;28;20123;-48
2021/08/18 03:24:23;;;;;;;40.10;22.40;;;15.10;93.80;;;;;;5074095;28;20021;-49
2021/08/18 03:26:48;;;;;;;49.10;24.30;;;15.10;93.90;;;;;;5075323;28;20024;-51
2021/08/18 03:29:14;;;;;;;46.95;24.65;;;15.10;94.00;;;;;;5075370;28;20381;-47
2021/08/18 03:31:39;;;;;;;44.58;25.98;;;15.20;93.80;;;;;;5075342;28;20024;-49
2021/08/18 03:34:05;;;;;;;39.58;22.95;;;15.20;93.40;;;;;;5075218;28;20029;-53
2021/08/18 03:36:31;;;;;;;42.13;23.70;;;15.20;93.60;;;;;;5074024;28;20024;-52
2021/08/18 03:38:58;;;;;;;42.97;23.67;;;15.10;93.70;;;;;;5075388;28;20413;-49
2021/08/18 03:41:24;;;;;;;36.97;22.83;;;15.10;93.70;;;;;;5074802;28;20024;-50
2021/08/18 03:43:50;;;;;;;42.90;24.67;;;15.10;93.70;;;;;;5074787;28;20085;-49
2021/08/18 03:46:15;;;;;;;40.53;23.95;;;15.20;93.80;;;;;;5074855;28;20021;-48
2021/08/18 03:48:41;;;;;;;45.38;25.35;;;15.20;93.50;;;;;;5075028;28;20027;-49
2021/08/18 03:51:07;;;;;;;41.90;24.70;;;15.30;93.40;;;;;;5074662;28;20476;-50
2021/08/18 03:53:33;;;;;;;45.63;23.88;;;15.20;93.30;;;;;;5074810;28;20035;-47
2021/08/18 03:55:58;;;;;;;39.40;22.80;;;15.20;93.40;;;;;;5074750;28;20511;-53
2021/08/18 03:58:24;;;;;;;41.58;24.73;;;15.20;93.30;;;;;;5075174;28;20032;-49
2021/08/18 04:00:50;;;;;;;39.35;20.70;;;15.20;93.50;;;;;;5074161;28;20025;-52
2021/08/18 04:03:15;;;;;;;40.63;23.55;;;15.10;93.80;;;;;;5074244;28;20460;-50
2021/08/18 04:05:41;;;;;;;39.33;21.42;;;15.20;93.50;;;;;;5074009;28;20031;-49
2021/08/18 04:08:08;;;;;;;39.28;21.95;;;15.20;93.50;;;;;;5073814;28;20028;-48
2021/08/18 04:10:35;;;;;;;39.22;21.77;;;15.20;93.40;;;;;;5073888;28;20020;-51
2021/08/18 04:13:01;;;;;;;35.55;20.73;;;15.20;93.60;;;;;;5073886;28;20085;-48
2021/08/18 04:15:38;;;;;;;38.45;21.08;;;15.10;93.70;;;;;;5073841;28;20032;-53
2021/08/18 04:18:04;;;;;;;36.80;21.20;;;15.10;93.80;;;;;;5074026;28;20028;-49
2021/08/18 04:20:29;;;;;;;39.65;21.02;;;15.20;93.70;;;;;;5073519;28;20112;-47
2021/08/18 04:22:55;;;;;;;33.17;20.65;;;15.20;93.70;;;;;;5073244;28;20074;-49
2021/08/18 04:25:21;;;;;;;35.60;20.90;;;15.20;93.40;;;;;;5073214;28;20075;-49
2021/08/18 04:27:47;;;;;;;35.00;19.88;;;15.20;93.50;;;;;;5073303;28;20021;-47
2021/08/18 04:30:15;;;;;;;32.17;18.08;;;15.10;93.60;;;;;;5073635;28;20151;-46
2021/08/18 04:32:41;;;;;;;33.42;19.40;;;15.10;93.60;;;;;;5074023;28;20096;-47
2021/08/18 04:35:08;;;;;;;33.38;18.52;;;15.10;93.60;;;;;;5073580;28;20560;-46
2021/08/18 04:37:35;;;;;;;28.02;16.85;;;15.20;93.50;;;;;;5073627;28;20028;-48
2021/08/18 04:40:05;;;;;;;25.65;16.50;;;15.20;93.50;;;;;;5073754;28;20396;-48
2021/08/18 04:42:39;;;;;;;29.42;16.17;;;15.10;93.30;;;;;;5073483;28;20496;-47
2021/08/18 04:45:07;;;;;;;30.70;17.80;;;15.10;93.40;;;;;;5073810;28;20043;-47
2021/08/18 04:47:34;;;;;;;30.80;17.27;;;15.10;93.40;;;;;;5073739;28;20173;-48
2021/08/18 04:50:00;;;;;;;29.30;17.90;;;15.10;93.40;;;;;;5071960;28;20030;-48
2021/08/18 04:52:25;;;;;;;24.73;17.55;;;15.10;93.30;;;;;;5073445;28;20020;-48
2021/08/18 04:54:52;;;;;;;25.83;16.42;;;15.20;93.10;;;;;;5073296;28;20028;-51
2021/08/18 04:57:17;;;;;;;27.48;15.48;;;15.10;93.00;;;;;;5073545;28;20034;-50
2021/08/18 04:59:43;;;;;;;22.15;15.25;;;15.10;93.00;;;;;;5073230;28;20028;-47
2021/08/18 05:02:09;;;;;;;20.70;14.32;;;15.10;92.90;;;;;;5073322;28;20033;-52
2021/08/18 05:04:34;;;;;;;22.75;14.55;;;15.10;92.90;;;;;;5073125;28;20031;-47
2021/08/18 05:07:00;;;;;;;18.90;12.35;;;15.10;92.70;;;;;;5071790;28;20020;-48
2021/08/18 05:09:25;;;;;;;14.45;9.98;;;15.20;92.30;;;;;;5073286;28;20020;-48
2021/08/18 05:11:51;;;;;;;13.75;9.52;;;15.10;91.90;;;;;;5073024;28;20016;-51
2021/08/18 05:14:17;;;;;;;16.05;9.40;;;15.10;91.50;;;;;;5073091;28;20081;-49
2021/08/18 05:16:42;;;;;;;12.43;9.05;;;15.10;91.50;;;;;;5072964;28;20027;-46
2021/08/18 05:19:08;;;;;;;13.70;8.75;;;15.00;91.50;;;;;;5072777;28;20036;-47
2021/08/18 05:21:34;;;;;;;11.40;8.60;;;15.10;91.70;;;;;;5072794;28;20106;-48
2021/08/18 05:23:59;;;;;;;14.90;8.43;;;15.10;92.00;;;;;;5072643;28;20024;-48
2021/08/18 05:26:26;;;;;;;11.75;8.57;;;15.10;92.00;;;;;;5073022;28;20055;-47
2021/08/18 05:28:52;;;;;;;12.25;8.25;;;15.20;91.90;;;;;;5071440;28;20025;-48
2021/08/18 05:31:17;;;;;;;11.85;8.73;;;15.20;91.60;;;;;;5072763;28;20035;-47
2021/08/18 05:33:43;;;;;;;13.40;8.52;;;15.20;91.70;;;;;;5072888;28;20415;-48
2021/08/18 05:36:09;;;;;;;13.13;8.90;;;15.10;91.80;;;;;;5071212;28;20032;-47
2021/08/18 05:38:34;;;;;;;14.15;8.60;;;15.20;91.90;;;;;;5072675;28;20198;-48
2021/08/18 05:41:00;;;;;;;14.65;8.93;;;15.20;91.70;;;;;;5072384;28;20138;-46
2021/08/18 05:43:26;;;;;;;11.80;7.80;;;15.20;91.70;;;;;;5072342;28;20029;-46
2021/08/18 05:45:51;;;;;;;11.05;8.15;;;15.30;91.50;;;;;;5072313;28;20020;-49
2021/08/18 05:48:17;;;;;;;12.93;7.13;;;15.30;91.20;;;;;;5071981;28;20477;-46
2021/08/18 05:50:42;;;;;;;12.65;7.95;;;15.30;91.30;;;;;;5072599;28;20060;-46
2021/08/18 05:53:15;;;;;;;11.05;8.43;;;15.30;91.40;;;;;;5072391;28;20050;-46
2021/08/18 05:55:42;;;;;;;11.25;7.43;;;15.30;91.60;;;;;;5072780;28;20024;-46
2021/08/18 05:58:08;;;;;;;11.20;7.57;;;15.30;91.00;;;;;;5072377;28;20024;-49
2021/08/18 06:00:34;;;;;;;10.07;6.70;;;15.30;90.80;;;;;;5072257;28;20039;-47
2021/08/18 06:02:59;;;;;;;7.75;5.85;;;15.30;90.70;;;;;;5072274;28;20024;-47
2021/08/18 06:05:25;;;;;;;11.15;6.25;;;15.40;90.30;;;;;;5072282;28;20024;-47
2021/08/18 06:07:51;;;;;;;7.78;6.25;;;15.40;90.30;;;;;;5072342;28;20099;-46
2021/08/18 06:10:16;;;;;;;8.20;6.10;;;15.50;90.20;;;;;;5070888;28;20031;-52
2021/08/18 06:12:42;;;;;;;9.15;5.18;;;15.50;89.90;;;;;;5072439;28;20025;-50
2021/08/18 06:15:08;;;;;;;6.97;5.30;;;15.50;89.70;;;;;;5072874;28;20025;-45
2021/08/18 06:17:34;;;;;;;12.95;5.97;;;15.50;89.50;;;;;;5071708;28;20052;-50
2021/08/18 06:19:59;;;;;;;7.95;4.95;;;15.50;89.70;;;;;;5071949;28;20534;-46
2021/08/18 06:22:25;;;;;;;8.15;4.72;;;15.50;89.70;;;;;;5071811;28;20064;-51
2021/08/18 06:24:51;;;;;;;5.85;4.70;;;15.40;89.20;;;;;;5071807;28;20044;-50
2021/08/18 06:27:18;;;;;;;5.03;3.83;;;15.40;89.40;;;;;;5072158;28;20100;-48
2021/08/18 06:29:43;;;;;;;6.03;4.00;;;15.40;89.30;;;;;;5071708;28;20491;-49
2021/08/18 06:32:09;;;;;;;11.20;5.22;;;15.30;89.70;;;;;;5071556;28;20020;-45
2021/08/18 06:34:35;;;;;;;5.28;3.78;;;15.30;89.80;;;;;;5072208;28;20037;-45
2021/08/18 06:37:02;;;;;;;6.70;4.22;;;15.30;89.90;;;;;;5071454;28;20074;-48
2021/08/18 06:39:32;;;;;;;4.90;4.18;;;15.30;90.20;;;;;;5071593;28;20021;-48
2021/08/18 06:41:59;;;;;;;6.75;3.85;;;15.40;89.90;;;;;;5071680;28;20489;-48
2021/08/18 06:44:24;;;;;;;8.77;5.45;;;15.60;89.60;;;;;;5070339;28;20047;-46
2021/08/18 06:46:50;;;;;;;7.13;4.07;;;15.70;88.90;;;;;;5071636;28;20032;-48
2021/08/18 06:49:16;;;;;;;7.25;5.35;;;15.80;88.80;;;;;;5071709;28;20074;-48
2021/08/18 06:51:42;;;;;;;8.63;5.50;;;15.80;88.50;;;;;;5071489;28;20103;-47
2021/08/18 06:54:09;;;;;;;8.73;5.85;;;15.80;89.00;;;;;;5071459;28;20539;-47
2021/08/18 06:56:35;;;;;;;8.68;6.97;;;15.60;89.40;;;;;;5071747;28;20070;-48
2021/08/18 06:59:00;;;;;;;10.23;5.93;;;15.80;89.60;;;;;;5072230;28;20056;-48
2021/08/18 07:01:26;;;;;;;10.45;6.47;;;15.80;88.90;;;;;;5075096;28;20547;-48
2021/08/18 07:03:52;;;;;;;7.22;5.35;;;15.70;89.10;;;;;;5073876;28;20025;-49
2021/08/18 07:06:18;;;;;;;7.38;5.85;;;15.80;89.50;;;;;;5075016;28;20021;-48
2021/08/18 07:08:43;;;;;;;7.90;5.13;;;15.90;89.20;;;;;;5075115;28;20473;-48
2021/08/18 07:11:09;;;;;;;7.15;5.38;;;16.00;89.00;;;;;;5074778;28;20146;-46
2021/08/18 07:13:35;;;;;;;6.03;5.25;;;16.00;88.80;;;;;;5074481;28;20043;-48
2021/08/18 07:16:00;;;;;;;9.90;5.82;;;16.10;88.80;;;;;;5074176;28;20028;-46
2021/08/18 07:18:26;;;;;;;6.82;4.68;;;16.30;88.20;;;;;;5074916;28;20111;-48
2021/08/18 07:20:52;;;;;;;7.88;4.47;;;16.50;87.60;;;;;;5074490;28;20032;-46
2021/08/18 07:23:18;;;;;;;7.80;5.22;;;16.60;86.70;;;;;;5074497;28;20075;-46
2021/08/18 07:25:44;;;;;;;6.32;4.55;;;16.50;86.80;;;;;;5074117;28;20040;-46
2021/08/18 07:28:10;;;;;;;5.82;5.07;;;16.30;87.80;;;;;;5074634;28;20024;-48
2021/08/18 07:30:35;;;;;;;6.15;4.28;;;16.70;87.10;;;;;;5075227;28;20487;-47
2021/08/18 07:33:02;;;;;;;5.80;3.67;;;16.80;85.80;;;;;;5074116;28;20075;-47
2021/08/18 07:35:27;;;;;;;9.68;5.93;;;16.80;85.30;;;;;;5073845;28;20031;-49
2021/08/18 07:37:53;;;;;;;9.45;4.80;;;16.80;85.90;;;;;;5074961;28;20476;-49
2021/08/18 07:40:19;;;;;;;8.48;5.50;;;16.80;86.00;;;;;;5074550;28;20086;-49
2021/08/18 07:42:45;;;;;;;9.07;6.10;;;17.00;85.60;;;;;;5073423;28;20025;-48
2021/08/18 07:45:11;;;;;;;13.57;7.20;;;17.10;85.40;;;;;;5074578;28;20107;-48
2021/08/18 07:47:37;;;;;;;9.32;7.53;;;17.30;85.20;;;;;;5074489;28;20017;-48
2021/08/18 07:50:04;;;;;;;14.18;9.15;;;17.30;85.20;;;;;;5074667;28;20029;-45
2021/08/18 07:52:30;;;;;;;15.35;10.73;;;17.40;85.00;;;;;;5072726;28;20047;-46
2021/08/18 07:54:56;;;;;;;18.02;12.02;;;17.30;85.40;;;;;;5074159;28;20096;-46
2021/08/18 07:57:21;;;;;;;18.00;12.10;;;17.40;85.30;;;;;;5073973;28;20032;-47
2021/08/18 07:59:50;;;;;;;15.82;12.52;;;17.40;85.30;;;;;;5074261;28;20159;-47
2021/08/18 08:02:20;;;;;;;17.65;13.75;;;17.30;85.50;;;;;;5074566;28;20035;-47
2021/08/18 08:04:47;;;;;;;18.98;13.32;;;17.20;85.40;;;;;;5073974;28;20028;-47
2021/08/18 08:07:13;;;;;;;16.45;12.68;;;17.40;85.20;;;;;;5074384;28;20111;-47
2021/08/18 08:09:39;;;;;;;18.50;13.18;;;17.70;84.30;;;;;;5071445;28;20032;-52
2021/08/18 08:12:05;;;;;;;15.45;13.65;;;17.70;84.00;;;;;;5073187;28;20131;-47
2021/08/18 08:14:31;;;;;;;17.58;14.85;;;17.50;85.00;;;;;;5073374;28;20029;-47
2021/08/18 08:16:56;;;;;;;15.10;12.07;;;17.70;84.50;;;;;;5073301;28;20169;-51
2021/08/18 08:19:22;;;;;;;17.80;12.85;;;17.70;83.70;;;;;;5073412;28;20024;-49
2021/08/18 08:21:48;;;;;;;18.63;14.48;;;17.70;83.70;;;;;;5073567;28;20044;-47
2021/08/18 08:24:13;;;;;;;18.08;13.82;;;17.80;83.20;;;;;;5073214;28;20020;-49
2021/08/18 08:26:39;;;;;;;14.82;11.45;;;17.70;83.20;;;;;;5072383;28;20352;-49
2021/08/18 08:29:05;;;;;;;13.45;10.95;;;18.00;82.30;;;;;;5073081;28;20397;-49
2021/08/18 08:31:31;;;;;;;13.65;10.60;;;18.40;80.60;;;;;;5072976;28;20067;-48
2021/08/18 08:33:56;;;;;;;13.77;8.10;;;18.60;80.60;;;;;;5072600;28;20103;-48
2021/08/18 08:36:22;;;;;;;10.55;7.05;;;18.70;78.20;;;;;;5072751;28;20032;-48
2021/08/18 08:38:48;;;;;;;8.20;6.72;;;18.80;76.30;;;;;;5072088;28;20149;-49
2021/08/18 08:41:15;;;;;;;7.50;6.40;;;19.30;75.40;;;;;;5072567;28;20027;-51
2021/08/18 08:43:41;;;;;;;10.90;7.35;;;19.20;75.90;;;;;;5073302;28;20067;-48
2021/08/18 08:46:07;;;;;;;7.03;5.75;;;19.70;75.90;;;;;;5071321;28;20499;-47
2021/08/18 08:48:33;;;;;;;7.18;5.35;;;19.60;74.70;;;;;;5071622;28;20021;-47
2021/08/18 08:51:16;;;;;;;6.80;4.75;;;19.40;73.40;;;;;;5073071;28;20142;-48
2021/08/18 08:53:41;;;;;;;8.50;5.78;;;19.30;73.30;;;;;;5072939;28;20028;-47
2021/08/18 08:56:08;;;;;;;7.45;4.70;;;19.30;73.20;;;;;;5072729;28;20043;-50
2021/08/18 08:58:34;;;;;;;7.35;4.75;;;19.50;73.40;;;;;;5072880;28;20389;-47
2021/08/18 09:01:00;;;;;;;5.35;4.80;;;19.60;73.00;;;;;;5073014;28;20070;-47
2021/08/18 09:03:26;;;;;;;5.35;4.18;;;19.50;72.40;;;;;;5072701;28;20029;-49
2021/08/18 09:05:56;;;;;;;4.38;3.25;;;19.60;72.70;;;;;;5072733;28;20012;-50
2021/08/18 09:08:23;;;;;;;10.00;5.50;;;19.50;70.40;;;;;;5072620;28;20153;-48
2021/08/18 09:11:13;;;;;;;12.18;4.05;;;19.30;71.50;;;;;;5071440;28;20051;-51
2021/08/18 09:13:53;;;;;;;4.30;3.80;;;18.60;73.50;;;;;;5072770;28;20024;-52
2021/08/18 09:16:32;;;;;;;4.90;3.97;;;18.50;74.90;;;;;;5071018;28;20373;-45
2021/08/18 09:18:58;;;;;;;5.13;3.70;;;18.40;73.40;;;;;;5072040;28;20031;-50
2021/08/18 09:21:28;;;;;;;7.25;4.97;;;18.50;74.00;;;;;;5071161;28;20024;-48
2021/08/18 09:24:11;;;;;;;7.33;4.23;;;18.40;75.00;;;;;;5072932;28;20031;-50
2021/08/18 09:26:41;;;;;;;5.45;4.72;;;18.30;75.10;;;;;;5072441;28;20603;-46
2021/08/18 09:29:08;;;;;;;8.00;5.00;;;18.30;74.60;;;;;;5072695;28;20157;-47
2021/08/18 09:31:34;;;;;;;5.88;4.03;;;18.20;75.60;;;;;;5072695;28;20384;-46
2021/08/18 09:34:00;;;;;;;6.05;4.90;;;18.30;75.70;;;;;;5072875;28;20025;-48
2021/08/18 09:36:29;;;;;;;6.53;5.75;;;18.20;76.80;;;;;;5072275;28;20107;-50
2021/08/18 09:39:30;;;;;;;7.13;5.68;;;18.10;77.50;;;;;;5072852;28;20421;-45
2021/08/18 09:41:56;;;;;;;9.07;6.40;;;18.10;77.80;;;;;;5030392;28;20076;-49
2021/08/18 09:44:21;;;;;;;6.70;5.65;;;18.20;77.50;;;;;;5063386;28;20064;-46
2021/08/18 09:47:04;;;;;;;12.40;6.53;;;18.20;77.80;;;;;;5072013;28;20082;-46
2021/08/18 09:49:33;;;;;;;8.07;6.45;;;18.40;77.00;;;;;;5071886;28;20495;-48
2021/08/18 09:51:59;;;;;;;11.23;6.63;;;18.60;76.60;;;;;;5072488;28;20020;-50
2021/08/18 09:54:36;;;;;;;8.85;7.03;;;18.50;76.40;;;;;;5072388;28;20028;-51
2021/08/18 09:57:06;;;;;;;11.10;6.57;;;19.00;75.60;;;;;;5072584;28;20024;-50
2021/08/18 09:59:33;;;;;;;8.02;7.22;;;19.30;74.20;;;;;;5072558;28;20110;-49
2021/08/18 10:01:59;;;;;;;11.93;7.55;;;19.30;74.60;;;;;;5072374;28;20044;-49
2021/08/18 10:04:25;;;;;;;9.23;7.68;;;19.40;73.80;;;;;;5072214;28;20035;-47
2021/08/18 10:06:51;;;;;;;9.93;7.05;;;19.40;73.70;;;;;;5072008;28;20097;-49
2021/08/18 10:09:17;;;;;;;12.15;7.68;;;19.20;74.50;;;;;;5072131;28;20033;-49
2021/08/18 10:11:43;;;;;;;10.63;6.68;;;19.30;74.50;;;;;;5071665;28;20391;-47
2021/08/18 10:14:09;;;;;;;9.98;7.28;;;19.50;73.90;;;;;;5071862;28;20183;-48
2021/08/18 10:16:35;;;;;;;8.95;7.80;;;19.70;73.60;;;;;;5072495;28;20035;-39
2021/08/18 10:19:05;;;;;;;13.55;8.10;;;19.80;72.60;;;;;;5071876;28;20107;-37
2021/08/18 10:21:32;;;;;;;10.93;7.40;;;20.20;72.00;;;;;;5071815;28;20096;-37
2021/08/18 10:24:06;;;;;;;9.20;6.72;;;20.60;71.10;;;;;;5071822;28;20058;-37
2021/08/18 10:26:38;;;;;;;8.05;6.82;;;20.30;70.70;;;;;;5071811;28;20044;-38
2021/08/18 10:29:36;;;;;;;10.50;6.88;;;20.00;71.70;;;;;;5072160;28;20495;-37
2021/08/18 10:32:07;;;;;;;8.68;6.47;;;20.20;71.50;;;;;;5068406;28;20025;-37
2021/08/18 10:34:40;;;;;;;8.07;7.13;;;20.00;70.80;;;;;;5075697;28;20088;-37
2021/08/18 10:37:07;;;;;;;8.23;6.35;;;20.30;69.30;;;;;;5074542;28;20031;-40
2021/08/18 10:39:51;;;;;;;8.77;7.00;;;20.30;70.20;;;;;;5075323;28;20047;-36
2021/08/18 10:42:30;;;;;;;9.93;6.97;;;20.10;70.30;;;;;;5073992;28;20032;-37
2021/08/18 10:44:55;;;;;;;7.18;6.47;;;20.50;68.90;;;;;;5076253;28;20376;-37
2021/08/18 10:47:29;;;;;;;9.18;6.82;;;20.50;69.30;;;;;;5073712;28;20032;-38
2021/08/18 10:49:57;;;;;;;7.88;5.53;;;20.60;68.50;;;;;;5075201;28;20017;-37
2021/08/18 10:52:28;;;;;;;6.68;5.40;;;20.90;66.70;;;;;;5075338;28;20024;-37
2021/08/18 10:55:10;;;;;;;8.70;5.80;;;21.30;65.50;;;;;;5074763;28;20070;-37
2021/08/18 10:57:40;;;;;;;10.02;7.85;;;21.10;64.10;;;;;;5074903;28;20035;-37
2021/08/18 11:00:13;;;;;;;12.65;9.50;;;21.00;65.60;;;;;;5074874;28;20583;-37
2021/08/18 11:02:54;;;;;;;11.25;9.55;;;20.60;67.90;;;;;;5074922;28;20056;-38
2021/08/18 11:05:25;;;;;;;15.07;12.52;;;20.50;68.40;;;;;;5073633;28;20041;-37
2021/08/18 11:08:17;;;;;;;15.90;13.95;;;20.70;69.00;;;;;;5074900;28;20024;-47
2021/08/18 11:10:52;;;;;;;18.70;12.88;;;20.40;70.70;;;;;;5074789;28;20067;-48
2021/08/18 11:13:33;;;;;;;17.60;14.10;;;20.40;70.60;;;;;;5074835;28;20093;-48
2021/08/18 11:15:59;;;;;;;21.58;14.90;;;20.10;71.20;;;;;;5075070;28;20021;-48
2021/08/18 11:18:25;;;;;;;19.25;15.98;;;20.10;71.50;;;;;;5075088;28;20016;-48
2021/08/18 11:20:52;;;;;;;21.60;16.30;;;20.30;70.00;;;;;;5074471;28;20103;-46
2021/08/18 11:23:26;;;;;;;19.27;16.33;;;20.00;70.90;;;;;;5073176;28;20051;-46
2021/08/18 11:25:56;;;;;;;20.67;14.82;;;20.20;70.50;;;;;;5057640;28;20135;-47
2021/08/18 11:28:24;;;;;;;15.48;13.40;;;19.80;71.10;;;;;;5075020;28;20183;-47
2021/08/18 11:30:56;;;;;;;15.63;13.90;;;19.50;72.10;;;;;;5075079;28;20020;-47
2021/08/18 11:33:23;;;;;;;16.73;13.15;;;19.40;72.90;;;;;;5074466;28;20025;-47
2021/08/18 11:35:48;;;;;;;15.73;13.38;;;19.30;72.80;;;;;;5074263;28;20042;-48
2021/08/18 11:38:15;;;;;;;15.38;12.88;;;19.50;72.80;;;;;;5074536;28;20107;-51
2021/08/18 11:40:42;;;;;;;14.88;12.90;;;19.30;73.40;;;;;;5074104;28;20031;-47
2021/08/18 11:43:07;;;;;;;14.13;12.63;;;19.30;73.60;;;;;;5074420;28;20078;-47
2021/08/18 11:45:35;;;;;;;15.32;13.18;;;19.30;73.10;;;;;;5073133;28;20469;-49
2021/08/18 11:48:11;;;;;;;14.35;12.85;;;19.30;73.40;;;;;;5074441;28;20025;-48
2021/08/18 11:50:38;;;;;;;15.48;13.88;;;19.00;73.70;;;;;;5074139;28;20024;-48
2021/08/18 11:53:06;;;;;;;13.95;12.05;;;18.80;73.30;;;;;;5074529;28;20028;-50
2021/08/18 11:55:33;;;;;;;13.15;9.60;;;18.80;74.40;;;;;;5074093;28;20035;-46
2021/08/18 11:58:01;;;;;;;11.10;9.98;;;18.80;74.50;;;;;;5074634;28;20054;-47
2021/08/18 12:00:28;;;;;;;14.18;9.98;;;18.80;74.90;;;;;;5074323;28;20045;-48
2021/08/18 12:02:55;;;;;;;12.55;9.25;;;18.80;74.00;;;;;;5074240;28;20028;-48
2021/08/18 12:05:32;;;;;;;9.98;8.48;;;18.80;74.10;;;;;;5074115;28;20166;-48
2021/08/18 12:08:09;;;;;;;12.43;8.68;;;18.80;74.20;;;;;;5074069;28;20483;-50
2021/08/18 12:10:43;;;;;;;11.30;8.50;;;18.50;75.30;;;;;;5072491;28;20024;-46
2021/08/18 12:13:14;;;;;;;10.07;7.47;;;18.70;75.30;;;;;;5074132;28;20024;-46
2021/08/18 12:15:46;;;;;;;9.13;7.97;;;18.60;75.20;;;;;;5072394;28;20021;-46
2021/08/18 12:18:34;;;;;;;11.35;8.13;;;18.60;75.40;;;;;;5074286;28;20070;-45
2021/08/18 12:21:30;;;;;;;10.85;8.25;;;18.80;74.90;;;;;;5073757;28;20020;-50
2021/08/18 12:23:58;;;;;;;10.15;6.55;;;18.80;75.40;;;;;;5072185;28;20063;-46
2021/08/18 12:26:35;;;;;;;12.55;6.88;;;19.20;74.20;;;;;;5073702;28;20025;-46
2021/08/18 12:29:04;;;;;;;9.63;7.10;;;19.40;73.20;;;;;;5073483;28;20426;-52
2021/08/18 12:31:51;;;;;;;8.10;5.90;;;19.60;72.30;;;;;;5073638;28;20043;-46
2021/08/18 12:34:27;;;;;;;12.70;6.10;;;19.60;71.40;;;;;;5072932;28;20033;-48
2021/08/18 12:36:59;;;;;;;6.03;5.43;;;19.70;72.90;;;;;;5073309;28;20016;-45
2021/08/18 12:39:29;;;;;;;6.50;3.85;;;19.60;70.60;;;;;;5073326;28;20444;-48